createdAt,value
2018-12-16T00:02:07.890Z,29.20
2018-12-16T00:04:36.192Z,30.80
2018-12-16T00:07:05.158Z,32.15
2018-12-16T00:09:33.183Z,30.92
2018-12-16T00:12:01.680Z,33.65
2018-12-16T00:14:29.747Z,32.83
2018-12-16T00:16:57.918Z,33.53
2018-12-16T00:19:26.026Z,38.48
2018-12-16T00:21:54.062Z,36.50
2018-12-16T00:24:22.431Z,37.93
2018-12-16T00:27:08.841Z,36.65
2018-12-16T00:29:36.911Z,34.98
2018-12-16T00:32:05.181Z,35.73
2018-12-16T00:34:33.291Z,37.08
2018-12-16T00:37:01.610Z,36.33
2018-12-16T00:39:29.933Z,38.35
2018-12-16T00:41:58.149Z,35.48
2018-12-16T00:44:26.380Z,34.10
2018-12-16T00:46:54.524Z,35.00
2018-12-16T00:49:22.932Z,34.25
2018-12-16T00:51:51.265Z,34.75
2018-12-16T00:54:19.565Z,35.43
2018-12-16T00:56:48.563Z,37.25
2018-12-16T00:59:16.852Z,35.43
2018-12-16T01:01:45.299Z,36.75
2018-12-16T01:04:14.005Z,35.63
2018-12-16T01:06:42.174Z,35.50
2018-12-16T01:09:10.320Z,36.45
2018-12-16T01:11:38.652Z,36.28
2018-12-16T01:14:07.465Z,34.00
2018-12-16T01:16:35.881Z,37.00
2018-12-16T01:19:04.229Z,35.43
2018-12-16T01:21:32.347Z,37.08
2018-12-16T01:24:00.794Z,36.58
2018-12-16T01:26:29.126Z,40.83
2018-12-16T01:31:24.735Z,39.00
2018-12-16T01:33:52.998Z,37.42
2018-12-16T01:36:21.589Z,42.03
2018-12-16T01:38:49.822Z,41.10
2018-12-16T01:41:18.309Z,39.15
2018-12-16T01:43:46.585Z,39.65
2018-12-16T01:46:14.924Z,38.80
2018-12-16T01:48:43.138Z,40.28
2018-12-16T01:51:12.063Z,38.88
2018-12-16T01:53:40.318Z,37.13
2018-12-16T01:56:08.540Z,36.98
2018-12-16T01:58:36.663Z,36.73
2018-12-16T02:01:04.963Z,40.50
2018-12-16T02:03:33.131Z,38.23
2018-12-16T02:06:01.299Z,38.67
2018-12-16T02:08:30.166Z,36.10
2018-12-16T02:10:58.227Z,38.25
2018-12-16T02:13:26.441Z,38.92
2018-12-16T02:15:54.717Z,39.55
2018-12-16T02:18:22.787Z,39.98
2018-12-16T02:20:50.826Z,42.33
2018-12-16T02:23:18.950Z,38.65
2018-12-16T02:25:46.999Z,39.30
2018-12-16T02:28:15.173Z,36.77
2018-12-16T02:30:43.429Z,38.38
2018-12-16T02:33:12.223Z,40.50
2018-12-16T02:35:40.290Z,38.10
2018-12-16T02:38:08.380Z,39.98
2018-12-16T02:40:36.583Z,38.30
2018-12-16T02:43:04.618Z,39.73
2018-12-16T02:45:32.810Z,37.93
2018-12-16T02:48:00.864Z,41.02
2018-12-16T02:50:29.037Z,40.83
2018-12-16T02:53:04.352Z,39.13
2018-12-16T02:55:27.331Z,38.83
2018-12-16T02:57:55.469Z,38.35
2018-12-16T03:00:23.738Z,37.88
2018-12-16T03:02:52.630Z,38.42
2018-12-16T03:05:20.846Z,37.08
2018-12-16T03:07:49.098Z,35.03
2018-12-16T03:10:17.211Z,35.45
2018-12-16T03:12:45.339Z,34.55
2018-12-16T03:15:14.267Z,33.63
2018-12-16T03:17:42.392Z,34.50
2018-12-16T03:20:10.488Z,34.38
2018-12-16T03:22:38.572Z,34.93
2018-12-16T03:25:06.660Z,33.53
2018-12-16T03:27:35.326Z,33.58
2018-12-16T03:30:05.127Z,34.65
2018-12-16T03:32:33.308Z,33.05
2018-12-16T03:35:01.591Z,35.23
2018-12-16T03:37:29.647Z,33.45
2018-12-16T03:39:57.697Z,33.02
2018-12-16T03:42:25.792Z,32.98
2018-12-16T03:44:53.839Z,33.30
2018-12-16T03:47:21.914Z,34.20
2018-12-16T03:49:50.120Z,34.60
2018-12-16T03:52:18.186Z,33.20
2018-12-16T03:54:46.517Z,32.28
2018-12-16T03:57:14.779Z,32.78
2018-12-16T03:59:42.878Z,33.58
2018-12-16T04:02:11.218Z,32.78
2018-12-16T04:04:39.220Z,34.83
2018-12-16T04:07:07.348Z,33.80
2018-12-16T04:09:35.678Z,33.70
2018-12-16T04:12:03.781Z,34.05
2018-12-16T04:14:31.834Z,33.80
2018-12-16T04:17:00.020Z,33.45
2018-12-16T04:19:28.192Z,33.23
2018-12-16T04:21:56.493Z,32.45
2018-12-16T04:24:24.746Z,32.90
2018-12-16T04:26:52.986Z,33.75
2018-12-16T04:29:21.957Z,34.83
2018-12-16T04:31:49.953Z,33.98
2018-12-16T04:34:18.054Z,34.08
2018-12-16T04:36:46.103Z,34.13
2018-12-16T04:39:14.386Z,35.15
2018-12-16T04:41:42.536Z,32.85
2018-12-16T04:44:10.776Z,33.83
2018-12-16T04:46:38.901Z,32.33
2018-12-16T04:49:07.078Z,32.50
2018-12-16T04:51:35.902Z,32.75
2018-12-16T04:54:04.122Z,32.40
2018-12-16T04:56:32.309Z,32.17
2018-12-16T04:59:00.521Z,31.42
2018-12-16T05:01:28.662Z,31.95
2018-12-16T05:03:56.810Z,32.30
2018-12-16T05:06:25.039Z,32.60
2018-12-16T05:08:53.581Z,32.15
2018-12-16T05:11:21.713Z,32.28
2018-12-16T05:13:49.725Z,32.35
2018-12-16T05:16:17.872Z,31.68
2018-12-16T05:18:46.071Z,31.37
2018-12-16T05:21:14.193Z,33.25
2018-12-16T05:23:42.268Z,31.50
2018-12-16T05:26:10.402Z,32.40
2018-12-16T05:28:38.552Z,31.10
2018-12-16T05:31:06.624Z,30.67
2018-12-16T05:33:35.002Z,30.90
2018-12-16T05:36:03.211Z,30.25
2018-12-16T05:38:31.368Z,31.00
2018-12-16T05:40:59.559Z,30.52
2018-12-16T05:43:27.698Z,31.87
2018-12-16T05:45:56.463Z,31.87
2018-12-16T05:48:24.677Z,30.60
2018-12-16T05:50:52.806Z,32.80
2018-12-16T05:53:20.831Z,30.85
2018-12-16T05:55:49.367Z,31.73
2018-12-16T05:58:17.691Z,31.57
2018-12-16T06:00:45.733Z,31.33
2018-12-16T06:03:14.441Z,31.12
2018-12-16T06:05:42.591Z,31.55
2018-12-16T06:08:10.818Z,31.85
2018-12-16T06:10:39.442Z,31.00
2018-12-16T06:13:07.726Z,31.07
2018-12-16T06:15:36.590Z,33.23
2018-12-16T06:18:04.600Z,31.65
2018-12-16T06:20:33.070Z,30.87
2018-12-16T06:23:01.346Z,29.70
2018-12-16T06:25:29.425Z,30.75
2018-12-16T06:27:57.530Z,31.12
2018-12-16T06:30:27.162Z,28.95
2018-12-16T06:32:55.375Z,28.65
2018-12-16T06:35:23.676Z,27.45
2018-12-16T06:37:51.734Z,24.80
2018-12-16T06:40:19.825Z,24.25
2018-12-16T06:42:48.057Z,23.00
2018-12-16T06:45:16.924Z,23.10
2018-12-16T06:47:44.992Z,21.70
2018-12-16T06:50:13.728Z,20.15
2018-12-16T06:52:41.879Z,20.70
2018-12-16T06:55:10.129Z,19.80
2018-12-16T06:57:38.531Z,20.25
2018-12-16T07:00:07.105Z,20.77
2018-12-16T07:02:35.281Z,19.90
2018-12-16T07:05:03.677Z,20.15
2018-12-16T07:07:31.815Z,20.13
2018-12-16T07:10:00.043Z,20.43
2018-12-16T07:12:28.662Z,20.20
2018-12-16T07:14:56.761Z,21.02
2018-12-16T07:17:24.976Z,21.87
2018-12-16T07:19:53.157Z,22.65
2018-12-16T07:22:21.159Z,22.42
2018-12-16T07:24:49.302Z,22.07
2018-12-16T07:27:17.673Z,19.80
2018-12-16T07:29:45.744Z,21.75
2018-12-16T07:32:13.890Z,21.40
2018-12-16T07:34:42.160Z,19.85
2018-12-16T07:37:10.290Z,19.30
2018-12-16T07:39:38.434Z,16.65
2018-12-16T07:42:06.602Z,19.00
2018-12-16T07:44:34.940Z,17.80
2018-12-16T07:47:03.253Z,17.32
2018-12-16T07:49:31.514Z,15.45
2018-12-16T07:51:59.809Z,16.23
2018-12-16T07:54:28.007Z,16.40
2018-12-16T07:56:56.089Z,16.15
2018-12-16T07:59:24.090Z,16.35
2018-12-16T08:01:52.931Z,16.93
2018-12-16T08:04:20.974Z,16.23
2018-12-16T08:06:49.253Z,15.70
2018-12-16T08:09:17.424Z,16.75
2018-12-16T08:11:45.987Z,15.60
2018-12-16T08:14:14.066Z,15.40
2018-12-16T08:16:42.307Z,15.10
2018-12-16T08:19:10.542Z,16.70
2018-12-16T08:21:38.815Z,15.28
2018-12-16T08:24:07.120Z,15.90
2018-12-16T08:26:35.313Z,15.58
2018-12-16T08:29:03.721Z,15.38
2018-12-16T08:31:32.034Z,17.00
2018-12-16T08:34:00.379Z,15.63
2018-12-16T08:36:28.426Z,16.40
2018-12-16T08:38:57.222Z,16.20
2018-12-16T08:41:25.287Z,17.23
2018-12-16T08:43:53.483Z,16.10
2018-12-16T08:46:21.646Z,16.75
2018-12-16T08:48:50.542Z,15.13
2018-12-16T08:51:18.590Z,16.77
2018-12-16T08:53:46.798Z,16.45
2018-12-16T08:56:14.974Z,16.60
2018-12-16T08:58:43.003Z,15.18
2018-12-16T09:01:11.178Z,15.50
2018-12-16T09:03:39.355Z,16.50
2018-12-16T09:06:07.654Z,14.60
2018-12-16T09:08:35.858Z,16.93
2018-12-16T09:11:04.471Z,14.40
2018-12-16T09:13:32.602Z,14.93
2018-12-16T09:16:00.814Z,17.10
2018-12-16T09:18:29.128Z,15.90
2018-12-16T09:20:57.306Z,15.90
2018-12-16T09:23:25.348Z,16.48
2018-12-16T09:25:53.558Z,16.07
2018-12-16T09:28:21.659Z,17.52
2018-12-16T09:30:49.832Z,16.37
2018-12-16T09:33:18.770Z,14.55
2018-12-16T09:35:47.059Z,14.20
2018-12-16T09:38:15.239Z,15.05
2018-12-16T09:40:43.497Z,14.68
2018-12-16T09:43:11.795Z,14.47
2018-12-16T09:45:40.234Z,14.85
2018-12-16T09:48:08.435Z,14.28
2018-12-16T09:50:36.529Z,14.55
2018-12-16T09:53:04.803Z,14.87
2018-12-16T09:55:32.855Z,13.98
2018-12-16T09:58:00.915Z,14.40
2018-12-16T10:00:28.980Z,14.87
2018-12-16T10:02:57.167Z,14.40
2018-12-16T10:05:26.021Z,15.00
2018-12-16T10:07:54.127Z,15.05
2018-12-16T10:10:22.370Z,16.23
2018-12-16T10:12:50.987Z,14.90
2018-12-16T10:15:19.039Z,14.18
2018-12-16T10:17:47.133Z,13.60
2018-12-16T10:20:15.383Z,14.13
2018-12-16T10:22:43.483Z,15.13
2018-12-16T10:25:11.534Z,16.25
2018-12-16T10:27:39.717Z,14.90
2018-12-16T10:30:09.195Z,14.50
2018-12-16T10:32:37.485Z,14.98
2018-12-16T10:35:05.888Z,14.90
2018-12-16T10:37:33.917Z,14.15
2018-12-16T10:40:02.264Z,14.80
2018-12-16T10:42:30.283Z,14.30
2018-12-16T10:44:58.479Z,14.97
2018-12-16T10:47:26.600Z,16.80
2018-12-16T10:49:54.634Z,15.43
2018-12-16T10:52:22.754Z,15.50
2018-12-16T10:54:58.179Z,14.85
2018-12-16T10:57:21.974Z,15.60
2018-12-16T10:59:50.077Z,18.80
2018-12-16T11:02:18.323Z,18.77
2018-12-16T11:04:46.534Z,16.82
2018-12-16T11:07:15.550Z,16.02
2018-12-16T11:09:43.801Z,18.02
2018-12-16T11:12:11.979Z,20.25
2018-12-16T11:14:40.645Z,15.90
2018-12-16T11:17:08.815Z,16.47
2018-12-16T11:19:37.656Z,15.40
2018-12-16T11:22:05.814Z,22.50
2018-12-16T11:24:34.034Z,17.42
2018-12-16T11:27:02.332Z,19.90
2018-12-16T11:29:30.396Z,20.00
2018-12-16T11:31:58.466Z,19.50
2018-12-16T11:34:27.046Z,21.65
2018-12-16T11:36:55.245Z,20.43
2018-12-16T11:39:23.273Z,20.02
2018-12-16T11:41:51.375Z,19.37
2018-12-16T11:44:19.525Z,18.65
2018-12-16T11:46:47.724Z,19.65
2018-12-16T11:49:15.866Z,17.42
2018-12-16T11:51:44.337Z,18.70
2018-12-16T11:54:12.538Z,22.35
2018-12-16T11:56:40.592Z,16.30
2018-12-16T11:59:08.791Z,16.90
2018-12-16T12:01:36.942Z,21.12
2018-12-16T12:04:05.592Z,21.45
2018-12-16T12:06:34.006Z,25.45
2018-12-16T12:09:02.367Z,20.90
2018-12-16T12:11:30.467Z,17.57
2018-12-16T12:13:58.583Z,17.25
2018-12-16T12:16:26.829Z,16.27
2018-12-16T12:19:00.794Z,16.55
2018-12-16T12:21:28.908Z,16.10
2018-12-16T12:23:57.287Z,20.05
2018-12-16T12:26:26.266Z,16.15
2018-12-16T12:28:54.367Z,18.60
2018-12-16T12:31:22.558Z,16.25
2018-12-16T12:33:50.706Z,17.07
2018-12-16T12:36:18.958Z,16.15
2018-12-16T12:38:47.141Z,20.88
2018-12-16T12:41:15.335Z,15.72
2018-12-16T12:43:43.668Z,17.80
2018-12-16T12:46:15.599Z,16.65
2018-12-16T12:48:44.045Z,17.30
2018-12-16T12:51:12.182Z,18.92
2018-12-16T12:53:40.254Z,21.25
2018-12-16T12:56:09.161Z,20.37
2018-12-16T12:58:38.329Z,20.00
2018-12-16T13:01:07.962Z,18.65
2018-12-16T13:03:37.294Z,18.32
2018-12-16T13:06:07.602Z,19.50
2018-12-16T13:08:37.157Z,19.75
2018-12-16T13:11:05.600Z,18.95
2018-12-16T13:13:33.634Z,18.80
2018-12-16T13:16:01.697Z,18.55
2018-12-16T13:18:31.318Z,18.05
2018-12-16T13:21:01.348Z,19.27
2018-12-16T13:23:31.657Z,18.50
2018-12-16T13:26:04.057Z,19.48
2018-12-16T13:28:33.845Z,17.80
2018-12-16T13:31:04.016Z,18.45
2018-12-16T13:33:32.672Z,25.70
2018-12-16T13:36:01.479Z,76.70
2018-12-16T13:38:30.258Z,32.70
2018-12-16T13:40:59.094Z,32.35
2018-12-16T13:43:27.837Z,19.17
2018-12-16T13:45:56.593Z,17.02
2018-12-16T13:48:25.285Z,18.05
2018-12-16T13:50:53.928Z,19.07
2018-12-16T13:53:22.064Z,19.82
2018-12-16T13:55:50.115Z,17.70
2018-12-16T13:58:19.342Z,17.30
2018-12-16T14:00:47.566Z,19.37
2018-12-16T14:03:15.631Z,18.40
2018-12-16T14:05:46.760Z,18.12
2018-12-16T14:08:14.050Z,18.35
2018-12-16T14:10:42.311Z,19.45
2018-12-16T14:13:10.593Z,18.85
2018-12-16T14:15:38.793Z,18.23
2018-12-16T14:18:06.925Z,17.65
2018-12-16T14:20:35.814Z,18.75
2018-12-16T14:23:04.318Z,18.37
2018-12-16T14:25:32.586Z,18.95
2018-12-16T14:28:00.768Z,19.45
2018-12-16T14:30:28.844Z,17.57
2018-12-16T14:32:56.880Z,20.00
2018-12-16T14:35:25.234Z,20.15
2018-12-16T14:37:53.747Z,19.48
2018-12-16T14:40:21.810Z,19.55
2018-12-16T14:42:50.118Z,19.65
2018-12-16T14:45:18.257Z,17.20
2018-12-16T14:47:46.488Z,17.15
2018-12-16T14:50:15.798Z,17.90
2018-12-16T14:52:43.836Z,17.82
2018-12-16T14:55:11.988Z,16.50
2018-12-16T14:57:40.164Z,20.62
2018-12-16T15:00:10.451Z,29.10
2018-12-16T15:02:38.868Z,22.98
2018-12-16T15:05:08.228Z,21.90
2018-12-16T15:07:36.279Z,23.90
2018-12-16T15:10:06.723Z,23.55
2018-12-16T15:12:35.055Z,19.10
2018-12-16T15:15:03.650Z,21.45
2018-12-16T15:17:31.914Z,26.60
2018-12-16T15:20:00.042Z,20.25
2018-12-16T15:22:28.831Z,20.23
2018-12-16T15:24:56.952Z,24.50
2018-12-16T15:27:25.107Z,23.07
2018-12-16T15:29:53.290Z,20.25
2018-12-16T15:32:21.362Z,25.45
2018-12-16T15:34:49.634Z,29.55
2018-12-16T15:37:17.811Z,25.85
2018-12-16T15:39:46.914Z,18.70
2018-12-16T15:42:15.162Z,19.75
2018-12-16T15:44:44.426Z,21.73
2018-12-16T15:47:12.944Z,24.32
2018-12-16T15:49:41.569Z,24.82
2018-12-16T15:52:09.810Z,25.10
2018-12-16T15:54:38.086Z,25.70
2018-12-16T15:57:06.907Z,25.50
2018-12-16T15:59:35.391Z,23.73
2018-12-16T16:02:03.413Z,25.10
2018-12-16T16:04:34.136Z,23.47
2018-12-16T16:07:04.355Z,23.92
2018-12-16T16:09:35.252Z,23.00
2018-12-16T16:12:06.046Z,24.12
2018-12-16T16:14:36.626Z,24.50
2018-12-16T16:17:08.290Z,25.20
2018-12-16T16:19:38.707Z,24.77
2018-12-16T16:22:09.529Z,23.07
2018-12-16T16:24:38.342Z,22.30
2018-12-16T16:27:06.560Z,22.07
2018-12-16T16:29:34.608Z,21.80
2018-12-16T16:32:02.846Z,23.00
2018-12-16T16:34:30.946Z,23.47
2018-12-16T16:36:59.055Z,22.85
2018-12-16T16:39:27.404Z,24.30
2018-12-16T16:41:55.585Z,26.60
2018-12-16T16:44:23.667Z,22.95
2018-12-16T16:46:51.705Z,34.90
2018-12-16T16:49:19.911Z,29.20
2018-12-16T16:51:48.104Z,33.63
2018-12-16T16:54:16.619Z,27.52
2018-12-16T16:56:44.652Z,26.95
2018-12-16T16:59:12.695Z,27.07
2018-12-16T17:01:40.912Z,26.10
2018-12-16T17:04:08.927Z,26.93
2018-12-16T17:06:37.126Z,25.95
2018-12-16T17:09:07.426Z,27.30
2018-12-16T17:11:35.553Z,29.55
2018-12-16T17:14:03.916Z,35.00
2018-12-16T17:16:32.749Z,33.83
2018-12-16T17:19:01.743Z,35.75
2018-12-16T17:21:30.281Z,34.43
2018-12-16T17:23:58.551Z,38.60
2018-12-16T17:26:30.002Z,38.15
2018-12-16T17:28:56.843Z,38.15
2018-12-16T17:31:25.586Z,32.80
2018-12-16T17:33:53.807Z,34.27
2018-12-16T17:36:22.504Z,31.77
2018-12-16T17:38:50.656Z,31.20
2018-12-16T17:41:18.713Z,31.60
2018-12-16T17:43:46.815Z,31.80
2018-12-16T17:46:14.988Z,28.98
2018-12-16T17:48:43.022Z,28.52
2018-12-16T17:51:11.233Z,28.07
2018-12-16T17:53:40.369Z,27.10
2018-12-16T17:56:08.947Z,28.50
2018-12-16T17:58:37.130Z,35.08
2018-12-16T18:01:05.234Z,35.98
2018-12-16T18:03:33.307Z,38.42
2018-12-16T18:06:01.382Z,37.73
2018-12-16T18:08:29.313Z,38.10
2018-12-16T18:10:57.427Z,36.88
2018-12-16T18:13:25.558Z,35.30
2018-12-16T18:15:54.326Z,39.80
2018-12-16T18:18:22.329Z,36.03
2018-12-16T18:20:51.923Z,33.48
2018-12-16T18:23:20.204Z,28.50
2018-12-16T18:25:48.391Z,28.80
2018-12-16T18:28:16.692Z,30.60
2018-12-16T18:30:44.962Z,30.52
2018-12-16T18:33:13.239Z,31.00
2018-12-16T18:35:41.673Z,32.30
2018-12-16T18:38:09.785Z,30.85
2018-12-16T18:40:38.967Z,35.00
2018-12-16T18:43:07.018Z,35.60
2018-12-16T18:45:35.727Z,34.60
2018-12-16T18:48:03.881Z,37.67
2018-12-16T18:50:32.094Z,34.50
2018-12-16T18:53:00.168Z,35.95
2018-12-16T18:55:29.194Z,37.27
2018-12-16T18:57:57.749Z,41.00
2018-12-16T19:00:25.771Z,42.70
2018-12-16T19:02:54.483Z,41.92
2018-12-16T19:05:23.223Z,36.90
2018-12-16T19:07:51.234Z,35.65
2018-12-16T19:10:20.041Z,36.77
2018-12-16T19:12:48.518Z,35.80
2018-12-16T19:15:17.814Z,35.20
2018-12-16T19:17:45.998Z,36.28
2018-12-16T19:20:14.162Z,46.10
2018-12-16T19:22:42.393Z,45.73
2018-12-16T19:25:10.575Z,41.98
2018-12-16T19:27:40.151Z,39.60
2018-12-16T19:30:09.506Z,39.13
2018-12-16T19:32:38.194Z,37.00
2018-12-16T19:35:08.457Z,44.35
2018-12-16T19:37:37.088Z,46.85
2018-12-16T19:40:06.448Z,56.42
2018-12-16T19:42:35.007Z,59.08
2018-12-16T19:45:07.241Z,45.33
2018-12-16T19:47:35.538Z,39.42
2018-12-16T19:50:04.034Z,41.70
2018-12-16T19:55:24.479Z,43.87
2018-12-16T19:57:52.623Z,37.00
2018-12-16T20:00:21.321Z,33.33
2018-12-16T20:02:49.534Z,33.70
2018-12-16T20:05:20.637Z,31.45
2018-12-16T20:07:49.557Z,32.95
2018-12-16T20:10:19.995Z,35.25
2018-12-16T20:12:50.336Z,31.80
2018-12-16T20:15:24.947Z,31.37
2018-12-16T20:17:53.430Z,36.42
2018-12-16T20:20:21.733Z,31.85
2018-12-16T20:22:50.283Z,29.80
2018-12-16T20:25:19.005Z,28.32
2018-12-16T20:27:47.042Z,29.05
2018-12-16T20:30:15.916Z,29.07
2018-12-16T20:32:44.502Z,31.42
2018-12-16T20:35:13.462Z,34.43
2018-12-16T20:37:42.182Z,29.42
2018-12-16T20:40:11.545Z,41.58
2018-12-16T20:42:39.707Z,30.97
2018-12-16T20:45:13.372Z,41.55
2018-12-16T20:47:41.770Z,32.63
2018-12-16T20:50:10.825Z,34.08
2018-12-16T20:52:38.939Z,32.10
2018-12-16T20:55:07.382Z,30.17
2018-12-16T20:57:35.470Z,25.08
2018-12-16T21:00:04.766Z,24.32
2018-12-16T21:02:33.612Z,26.35
2018-12-16T21:05:01.898Z,27.48
2018-12-16T21:07:30.131Z,29.87
2018-12-16T21:09:58.510Z,28.70
2018-12-16T21:12:32.432Z,26.07
2018-12-16T21:15:05.927Z,28.80
2018-12-16T21:17:39.393Z,33.73
2018-12-16T21:20:08.216Z,35.03
2018-12-16T21:22:36.268Z,31.27
2018-12-16T21:25:04.370Z,31.60
2018-12-16T21:27:33.136Z,29.53
2018-12-16T21:30:02.765Z,27.30
2018-12-16T21:32:30.811Z,27.27
2018-12-16T21:34:58.972Z,26.10
2018-12-16T21:37:27.032Z,26.60
2018-12-16T21:39:55.098Z,33.70
2018-12-16T21:42:23.796Z,32.45
2018-12-16T21:44:51.855Z,29.15
2018-12-16T21:47:20.714Z,34.40
2018-12-16T21:49:48.806Z,32.00
2018-12-16T21:52:17.300Z,29.80
2018-12-16T21:54:45.483Z,29.48
2018-12-16T21:57:25.313Z,28.25
2018-12-16T22:00:06.197Z,31.77
2018-12-16T22:02:37.284Z,29.60
2018-12-16T22:05:19.334Z,28.85
2018-12-16T22:07:48.442Z,28.30
2018-12-16T22:10:16.494Z,28.30
2018-12-16T22:12:44.649Z,31.80
2018-12-16T22:15:13.688Z,32.63
2018-12-16T22:17:42.758Z,31.35
2018-12-16T22:20:11.051Z,28.80
2018-12-16T22:22:39.209Z,28.90
2018-12-16T22:25:07.358Z,27.42
2018-12-16T22:27:40.225Z,27.32
2018-12-16T22:30:05.960Z,38.65
2018-12-16T22:32:34.287Z,25.90
2018-12-16T22:35:02.840Z,25.23
2018-12-16T22:37:31.266Z,26.10
2018-12-16T22:39:59.607Z,25.60
2018-12-16T22:42:27.873Z,26.70
2018-12-16T22:44:55.849Z,28.47
2018-12-16T22:47:23.946Z,29.60
2018-12-16T22:49:52.074Z,27.37
2018-12-16T22:52:20.270Z,29.45
2018-12-16T22:54:49.014Z,26.60
2018-12-16T22:57:17.214Z,24.98
2018-12-16T22:59:45.472Z,25.10
2018-12-16T23:02:13.665Z,24.53
2018-12-16T23:04:41.843Z,25.97
2018-12-16T23:07:10.147Z,28.00
2018-12-16T23:09:38.211Z,33.30
2018-12-16T23:12:06.347Z,32.78
2018-12-16T23:14:34.544Z,29.23
2018-12-16T23:17:02.777Z,29.02
2018-12-16T23:19:31.013Z,28.42
2018-12-16T23:22:02.423Z,25.90
2018-12-16T23:24:31.073Z,25.80
2018-12-16T23:26:59.486Z,24.02
2018-12-16T23:29:27.472Z,26.85
2018-12-16T23:31:55.943Z,26.73
2018-12-16T23:34:24.166Z,26.40
2018-12-16T23:36:52.182Z,27.20
2018-12-16T23:39:20.482Z,27.93
2018-12-16T23:41:48.632Z,26.07
2018-12-16T23:44:16.836Z,25.05
2018-12-16T23:46:44.983Z,25.05
2018-12-16T23:49:13.894Z,24.55
2018-12-16T23:51:42.145Z,25.02
2018-12-16T23:54:10.235Z,26.35
2018-12-16T23:56:39.240Z,26.15
2018-12-16T23:59:07.462Z,28.53
